sensor_id;sensor_type;location;lat;lon;timestamp;P1;durP1;ratioP1;P2;durP2;ratioP2
6378;SDS011;3222;48.858;10.128;2023-02-26T00:01:11;3.60;;;2.10;;
6378;SDS011;3222;48.858;10.128;2023-02-26T00:03:37;1.87;;;1.77;;
6378;SDS011;3222;48.858;10.128;2023-02-26T00:06:03;1.70;;;1.60;;
6378;SDS011;3222;48.858;10.128;2023-02-26T00:08:29;2.40;;;1.93;;
6378;SDS011;3222;48.858;10.128;2023-02-26T00:10:55;1.90;;;1.80;;
6378;SDS011;3222;48.858;10.128;2023-02-26T00:13:22;3.80;;;2.30;;
6378;SDS011;3222;48.858;10.128;2023-02-26T00:15:49;2.97;;;2.30;;
6378;SDS011;3222;48.858;10.128;2023-02-26T00:18:18;2.80;;;2.20;;
6378;SDS011;3222;48.858;10.128;2023-02-26T00:20:44;2.90;;;2.20;;
6378;SDS011;3222;48.858;10.128;2023-02-26T00:23:12;2.40;;;2.20;;
6378;SDS011;3222;48.858;10.128;2023-02-26T00:25:39;2.30;;;2.10;;
6378;SDS011;3222;48.858;10.128;2023-02-26T00:28:05;2.27;;;2.17;;
6378;SDS011;3222;48.858;10.128;2023-02-26T00:30:31;2.77;;;2.27;;
6378;SDS011;3222;48.858;10.128;2023-02-26T00:32:57;3.07;;;2.07;;
6378;SDS011;3222;48.858;10.128;2023-02-26T00:35:23;3.97;;;2.20;;
6378;SDS011;3222;48.858;10.128;2023-02-26T00:43:05;2.93;;;2.13;;
6378;SDS011;3222;48.858;10.128;2023-02-26T00:45:33;2.00;;;1.90;;
6378;SDS011;3222;48.858;10.128;2023-02-26T00:53:35;1.80;;;1.70;;
6378;SDS011;3222;48.858;10.128;2023-02-26T00:56:10;2.30;;;2.10;;
6378;SDS011;3222;48.858;10.128;2023-02-26T00:58:37;2.10;;;1.90;;
6378;SDS011;3222;48.858;10.128;2023-02-26T01:01:03;2.67;;;2.17;;
6378;SDS011;3222;48.858;10.128;2023-02-26T01:03:30;2.90;;;2.13;;
6378;SDS011;3222;48.858;10.128;2023-02-26T01:05:56;2.67;;;1.97;;
6378;SDS011;3222;48.858;10.128;2023-02-26T01:11:07;2.97;;;2.07;;
6378;SDS011;3222;48.858;10.128;2023-02-26T01:13:33;2.27;;;2.00;;
6378;SDS011;3222;48.858;10.128;2023-02-26T01:16:01;2.13;;;1.93;;
6378;SDS011;3222;48.858;10.128;2023-02-26T01:18:32;5.40;;;2.17;;
6378;SDS011;3222;48.858;10.128;2023-02-26T01:21:11;2.67;;;2.10;;
6378;SDS011;3222;48.858;10.128;2023-02-26T01:23:44;4.97;;;2.27;;
6378;SDS011;3222;48.858;10.128;2023-02-26T01:26:14;3.23;;;2.13;;
6378;SDS011;3222;48.858;10.128;2023-02-26T01:28:45;5.33;;;2.40;;
6378;SDS011;3222;48.858;10.128;2023-02-26T01:31:15;2.50;;;2.30;;
6378;SDS011;3222;48.858;10.128;2023-02-26T01:33:54;2.47;;;2.20;;
6378;SDS011;3222;48.858;10.128;2023-02-26T01:36:30;2.33;;;2.13;;
6378;SDS011;3222;48.858;10.128;2023-02-26T01:39:02;4.33;;;2.93;;
6378;SDS011;3222;48.858;10.128;2023-02-26T01:41:36;5.13;;;2.73;;
6378;SDS011;3222;48.858;10.128;2023-02-26T01:49:01;4.47;;;2.10;;
6378;SDS011;3222;48.858;10.128;2023-02-26T01:54:10;8.30;;;3.60;;
6378;SDS011;3222;48.858;10.128;2023-02-26T01:56:37;10.47;;;3.93;;
6378;SDS011;3222;48.858;10.128;2023-02-26T01:59:04;5.93;;;2.50;;
6378;SDS011;3222;48.858;10.128;2023-02-26T02:01:32;3.97;;;2.53;;
6378;SDS011;3222;48.858;10.128;2023-02-26T02:04:00;2.97;;;2.10;;
6378;SDS011;3222;48.858;10.128;2023-02-26T02:06:26;2.67;;;2.07;;
6378;SDS011;3222;48.858;10.128;2023-02-26T02:08:53;3.80;;;2.10;;
6378;SDS011;3222;48.858;10.128;2023-02-26T02:11:21;2.97;;;2.10;;
6378;SDS011;3222;48.858;10.128;2023-02-26T02:19:39;4.60;;;2.47;;
6378;SDS011;3222;48.858;10.128;2023-02-26T02:27:41;2.80;;;2.13;;
6378;SDS011;3222;48.858;10.128;2023-02-26T02:33:37;2.60;;;2.17;;
6378;SDS011;3222;48.858;10.128;2023-02-26T02:36:25;2.10;;;1.70;;
6378;SDS011;3222;48.858;10.128;2023-02-26T02:38:56;2.43;;;2.03;;
6378;SDS011;3222;48.858;10.128;2023-02-26T02:41:33;3.37;;;1.90;;
6378;SDS011;3222;48.858;10.128;2023-02-26T02:44:08;2.03;;;1.80;;
6378;SDS011;3222;48.858;10.128;2023-02-26T02:46:37;2.87;;;1.93;;
6378;SDS011;3222;48.858;10.128;2023-02-26T02:49:09;6.73;;;2.17;;
6378;SDS011;3222;48.858;10.128;2023-02-26T02:51:44;2.03;;;1.93;;
6378;SDS011;3222;48.858;10.128;2023-02-26T02:54:16;2.67;;;2.20;;
6378;SDS011;3222;48.858;10.128;2023-02-26T02:56:53;3.50;;;2.07;;
6378;SDS011;3222;48.858;10.128;2023-02-26T02:59:23;2.10;;;1.87;;
6378;SDS011;3222;48.858;10.128;2023-02-26T03:02:05;2.47;;;1.80;;
6378;SDS011;3222;48.858;10.128;2023-02-26T03:04:56;3.27;;;2.00;;
6378;SDS011;3222;48.858;10.128;2023-02-26T03:07:22;4.50;;;2.30;;
6378;SDS011;3222;48.858;10.128;2023-02-26T03:09:50;2.83;;;2.00;;
6378;SDS011;3222;48.858;10.128;2023-02-26T03:12:16;2.47;;;1.90;;
6378;SDS011;3222;48.858;10.128;2023-02-26T03:14:42;2.80;;;1.93;;
6378;SDS011;3222;48.858;10.128;2023-02-26T03:20:28;3.50;;;1.63;;
6378;SDS011;3222;48.858;10.128;2023-02-26T03:25:52;3.60;;;1.90;;
6378;SDS011;3222;48.858;10.128;2023-02-26T03:31:32;2.63;;;1.90;;
6378;SDS011;3222;48.858;10.128;2023-02-26T03:34:05;3.03;;;1.97;;
6378;SDS011;3222;48.858;10.128;2023-02-26T03:39:26;1.90;;;1.80;;
6378;SDS011;3222;48.858;10.128;2023-02-26T03:41:57;2.33;;;1.70;;
6378;SDS011;3222;48.858;10.128;2023-02-26T03:44:38;2.73;;;1.80;;
6378;SDS011;3222;48.858;10.128;2023-02-26T03:47:12;1.80;;;1.70;;
6378;SDS011;3222;48.858;10.128;2023-02-26T03:49:53;2.20;;;1.93;;
6378;SDS011;3222;48.858;10.128;2023-02-26T03:52:30;3.20;;;1.70;;
6378;SDS011;3222;48.858;10.128;2023-02-26T03:55:17;1.67;;;1.57;;
6378;SDS011;3222;48.858;10.128;2023-02-26T03:57:56;2.60;;;1.77;;
6378;SDS011;3222;48.858;10.128;2023-02-26T04:00:29;2.63;;;1.87;;
6378;SDS011;3222;48.858;10.128;2023-02-26T04:05:48;2.03;;;1.73;;
6378;SDS011;3222;48.858;10.128;2023-02-26T04:08:17;2.23;;;2.03;;
6378;SDS011;3222;48.858;10.128;2023-02-26T04:10:52;4.17;;;2.13;;
6378;SDS011;3222;48.858;10.128;2023-02-26T04:13:21;2.73;;;1.70;;
6378;SDS011;3222;48.858;10.128;2023-02-26T04:15:48;2.53;;;1.80;;
6378;SDS011;3222;48.858;10.128;2023-02-26T04:18:13;3.10;;;1.80;;
6378;SDS011;3222;48.858;10.128;2023-02-26T04:20:39;2.20;;;1.50;;
6378;SDS011;3222;48.858;10.128;2023-02-26T04:23:05;1.73;;;1.63;;
6378;SDS011;3222;48.858;10.128;2023-02-26T04:25:30;5.77;;;2.00;;
6378;SDS011;3222;48.858;10.128;2023-02-26T04:27:58;3.63;;;2.03;;
6378;SDS011;3222;48.858;10.128;2023-02-26T04:30:23;2.07;;;1.80;;
6378;SDS011;3222;48.858;10.128;2023-02-26T04:32:49;2.43;;;1.70;;
6378;SDS011;3222;48.858;10.128;2023-02-26T04:35:15;2.60;;;2.00;;
6378;SDS011;3222;48.858;10.128;2023-02-26T04:37:41;2.37;;;1.90;;
6378;SDS011;3222;48.858;10.128;2023-02-26T04:40:06;2.87;;;1.90;;
6378;SDS011;3222;48.858;10.128;2023-02-26T04:42:33;2.17;;;1.80;;
6378;SDS011;3222;48.858;10.128;2023-02-26T04:44:58;4.43;;;1.80;;
6378;SDS011;3222;48.858;10.128;2023-02-26T04:47:26;2.40;;;1.80;;
6378;SDS011;3222;48.858;10.128;2023-02-26T04:49:51;1.97;;;1.70;;
6378;SDS011;3222;48.858;10.128;2023-02-26T04:52:17;1.60;;;1.50;;
6378;SDS011;3222;48.858;10.128;2023-02-26T04:54:43;1.70;;;1.60;;
6378;SDS011;3222;48.858;10.128;2023-02-26T04:57:12;3.13;;;1.80;;
6378;SDS011;3222;48.858;10.128;2023-02-26T04:59:38;3.30;;;2.10;;
6378;SDS011;3222;48.858;10.128;2023-02-26T05:02:04;1.80;;;1.70;;
6378;SDS011;3222;48.858;10.128;2023-02-26T05:04:31;2.90;;;1.63;;
6378;SDS011;3222;48.858;10.128;2023-02-26T05:06:58;2.63;;;1.70;;
6378;SDS011;3222;48.858;10.128;2023-02-26T05:09:24;2.07;;;1.80;;
6378;SDS011;3222;48.858;10.128;2023-02-26T05:11:50;2.03;;;1.73;;
6378;SDS011;3222;48.858;10.128;2023-02-26T05:14:16;1.60;;;1.50;;
6378;SDS011;3222;48.858;10.128;2023-02-26T05:16:43;4.50;;;1.60;;
6378;SDS011;3222;48.858;10.128;2023-02-26T05:19:09;3.50;;;2.17;;
6378;SDS011;3222;48.858;10.128;2023-02-26T05:21:34;4.40;;;2.47;;
6378;SDS011;3222;48.858;10.128;2023-02-26T05:24:00;10.23;;;5.50;;
6378;SDS011;3222;48.858;10.128;2023-02-26T05:26:26;11.87;;;8.40;;
6378;SDS011;3222;48.858;10.128;2023-02-26T05:28:51;4.97;;;3.00;;
6378;SDS011;3222;48.858;10.128;2023-02-26T05:31:17;5.53;;;3.50;;
6378;SDS011;3222;48.858;10.128;2023-02-26T05:33:43;11.43;;;2.50;;
6378;SDS011;3222;48.858;10.128;2023-02-26T05:36:10;3.83;;;2.30;;
6378;SDS011;3222;48.858;10.128;2023-02-26T05:38:36;2.23;;;1.97;;
6378;SDS011;3222;48.858;10.128;2023-02-26T05:41:02;2.90;;;2.53;;
6378;SDS011;3222;48.858;10.128;2023-02-26T05:43:28;3.60;;;2.60;;
6378;SDS011;3222;48.858;10.128;2023-02-26T05:45:54;4.93;;;3.80;;
6378;SDS011;3222;48.858;10.128;2023-02-26T05:48:20;8.03;;;4.40;;
6378;SDS011;3222;48.858;10.128;2023-02-26T05:50:47;9.83;;;5.47;;
6378;SDS011;3222;48.858;10.128;2023-02-26T05:53:13;5.10;;;3.03;;
6378;SDS011;3222;48.858;10.128;2023-02-26T05:55:39;5.70;;;3.30;;
6378;SDS011;3222;48.858;10.128;2023-02-26T05:58:05;7.47;;;4.47;;
6378;SDS011;3222;48.858;10.128;2023-02-26T06:00:30;4.17;;;3.10;;
6378;SDS011;3222;48.858;10.128;2023-02-26T06:02:56;5.43;;;3.23;;
6378;SDS011;3222;48.858;10.128;2023-02-26T06:05:22;4.20;;;2.73;;
6378;SDS011;3222;48.858;10.128;2023-02-26T06:07:47;3.10;;;2.80;;
6378;SDS011;3222;48.858;10.128;2023-02-26T06:10:13;3.53;;;2.50;;
6378;SDS011;3222;48.858;10.128;2023-02-26T06:12:39;4.60;;;3.00;;
6378;SDS011;3222;48.858;10.128;2023-02-26T06:15:05;4.20;;;2.80;;
6378;SDS011;3222;48.858;10.128;2023-02-26T06:17:32;3.43;;;3.00;;
6378;SDS011;3222;48.858;10.128;2023-02-26T06:19:58;5.10;;;3.00;;
6378;SDS011;3222;48.858;10.128;2023-02-26T06:22:24;5.17;;;3.27;;
6378;SDS011;3222;48.858;10.128;2023-02-26T06:24:49;5.70;;;3.50;;
6378;SDS011;3222;48.858;10.128;2023-02-26T06:27:15;4.50;;;3.10;;
6378;SDS011;3222;48.858;10.128;2023-02-26T06:29:41;4.90;;;3.50;;
6378;SDS011;3222;48.858;10.128;2023-02-26T06:32:07;3.97;;;3.43;;
6378;SDS011;3222;48.858;10.128;2023-02-26T06:34:33;4.40;;;3.20;;
6378;SDS011;3222;48.858;10.128;2023-02-26T06:36:58;5.67;;;3.07;;
6378;SDS011;3222;48.858;10.128;2023-02-26T06:39:24;4.90;;;3.60;;
6378;SDS011;3222;48.858;10.128;2023-02-26T06:41:50;3.83;;;3.10;;
6378;SDS011;3222;48.858;10.128;2023-02-26T06:44:15;4.77;;;2.87;;
6378;SDS011;3222;48.858;10.128;2023-02-26T06:46:41;3.93;;;3.30;;
6378;SDS011;3222;48.858;10.128;2023-02-26T06:49:07;4.23;;;3.23;;
6378;SDS011;3222;48.858;10.128;2023-02-26T06:51:33;4.00;;;3.30;;
6378;SDS011;3222;48.858;10.128;2023-02-26T06:53:59;4.70;;;2.97;;
6378;SDS011;3222;48.858;10.128;2023-02-26T06:56:25;5.43;;;2.93;;
6378;SDS011;3222;48.858;10.128;2023-02-26T06:58:51;3.50;;;2.47;;
6378;SDS011;3222;48.858;10.128;2023-02-26T07:01:17;2.70;;;2.43;;
6378;SDS011;3222;48.858;10.128;2023-02-26T07:03:42;2.60;;;2.40;;
6378;SDS011;3222;48.858;10.128;2023-02-26T07:06:08;3.80;;;2.13;;
6378;SDS011;3222;48.858;10.128;2023-02-26T07:08:36;2.53;;;2.30;;
6378;SDS011;3222;48.858;10.128;2023-02-26T07:11:02;3.57;;;2.50;;
6378;SDS011;3222;48.858;10.128;2023-02-26T07:13:28;3.97;;;2.33;;
6378;SDS011;3222;48.858;10.128;2023-02-26T07:15:54;6.30;;;2.90;;
6378;SDS011;3222;48.858;10.128;2023-02-26T07:18:20;2.37;;;2.17;;
6378;SDS011;3222;48.858;10.128;2023-02-26T07:20:47;3.00;;;2.20;;
6378;SDS011;3222;48.858;10.128;2023-02-26T07:23:14;2.60;;;2.40;;
6378;SDS011;3222;48.858;10.128;2023-02-26T07:25:40;5.33;;;2.77;;
6378;SDS011;3222;48.858;10.128;2023-02-26T07:28:05;7.07;;;4.40;;
6378;SDS011;3222;48.858;10.128;2023-02-26T07:30:31;3.30;;;2.90;;
6378;SDS011;3222;48.858;10.128;2023-02-26T07:32:57;5.90;;;2.43;;
6378;SDS011;3222;48.858;10.128;2023-02-26T07:35:23;6.07;;;3.60;;
6378;SDS011;3222;48.858;10.128;2023-02-26T07:37:49;4.50;;;3.50;;
6378;SDS011;3222;48.858;10.128;2023-02-26T07:40:16;6.03;;;3.43;;
6378;SDS011;3222;48.858;10.128;2023-02-26T07:42:42;4.07;;;2.80;;
6378;SDS011;3222;48.858;10.128;2023-02-26T07:45:07;2.57;;;2.30;;
6378;SDS011;3222;48.858;10.128;2023-02-26T07:47:34;4.03;;;2.30;;
6378;SDS011;3222;48.858;10.128;2023-02-26T07:50:00;7.93;;;3.57;;
6378;SDS011;3222;48.858;10.128;2023-02-26T07:52:26;8.97;;;3.30;;
6378;SDS011;3222;48.858;10.128;2023-02-26T07:54:52;4.10;;;3.07;;
6378;SDS011;3222;48.858;10.128;2023-02-26T07:57:18;7.27;;;3.27;;
6378;SDS011;3222;48.858;10.128;2023-02-26T07:59:44;5.63;;;2.60;;
6378;SDS011;3222;48.858;10.128;2023-02-26T08:02:10;3.60;;;2.53;;
6378;SDS011;3222;48.858;10.128;2023-02-26T08:04:36;3.33;;;2.10;;
6378;SDS011;3222;48.858;10.128;2023-02-26T08:07:02;3.37;;;2.47;;
6378;SDS011;3222;48.858;10.128;2023-02-26T08:09:28;3.03;;;2.43;;
6378;SDS011;3222;48.858;10.128;2023-02-26T08:11:54;3.43;;;2.20;;
6378;SDS011;3222;48.858;10.128;2023-02-26T08:14:21;2.50;;;2.30;;
6378;SDS011;3222;48.858;10.128;2023-02-26T08:16:46;2.47;;;2.20;;
6378;SDS011;3222;48.858;10.128;2023-02-26T08:19:12;2.57;;;2.37;;
6378;SDS011;3222;48.858;10.128;2023-02-26T08:21:38;2.53;;;2.30;;
6378;SDS011;3222;48.858;10.128;2023-02-26T08:24:04;2.43;;;2.20;;
6378;SDS011;3222;48.858;10.128;2023-02-26T08:26:30;2.67;;;2.20;;
6378;SDS011;3222;48.858;10.128;2023-02-26T08:28:55;2.23;;;2.03;;
6378;SDS011;3222;48.858;10.128;2023-02-26T08:31:21;3.63;;;2.20;;
6378;SDS011;3222;48.858;10.128;2023-02-26T08:33:47;2.33;;;2.00;;
6378;SDS011;3222;48.858;10.128;2023-02-26T08:36:12;3.73;;;2.30;;
6378;SDS011;3222;48.858;10.128;2023-02-26T08:38:38;2.53;;;2.30;;
6378;SDS011;3222;48.858;10.128;2023-02-26T08:41:04;2.63;;;2.43;;
6378;SDS011;3222;48.858;10.128;2023-02-26T08:43:30;4.53;;;2.30;;
6378;SDS011;3222;48.858;10.128;2023-02-26T08:45:56;2.63;;;2.20;;
6378;SDS011;3222;48.858;10.128;2023-02-26T08:48:23;3.73;;;2.37;;
6378;SDS011;3222;48.858;10.128;2023-02-26T08:50:49;2.33;;;2.13;;
6378;SDS011;3222;48.858;10.128;2023-02-26T08:53:15;4.20;;;2.40;;
6378;SDS011;3222;48.858;10.128;2023-02-26T08:55:41;2.10;;;2.00;;
6378;SDS011;3222;48.858;10.128;2023-02-26T08:58:09;2.83;;;2.60;;
6378;SDS011;3222;48.858;10.128;2023-02-26T09:00:35;2.87;;;2.60;;
6378;SDS011;3222;48.858;10.128;2023-02-26T09:03:00;5.00;;;2.70;;
6378;SDS011;3222;48.858;10.128;2023-02-26T09:05:26;5.50;;;2.90;;
6378;SDS011;3222;48.858;10.128;2023-02-26T09:07:52;3.50;;;3.00;;
6378;SDS011;3222;48.858;10.128;2023-02-26T09:10:17;5.60;;;2.70;;
6378;SDS011;3222;48.858;10.128;2023-02-26T09:12:43;3.00;;;2.40;;
6378;SDS011;3222;48.858;10.128;2023-02-26T09:15:09;2.50;;;2.13;;
6378;SDS011;3222;48.858;10.128;2023-02-26T09:17:36;4.80;;;2.50;;
6378;SDS011;3222;48.858;10.128;2023-02-26T09:20:02;2.30;;;2.10;;
6378;SDS011;3222;48.858;10.128;2023-02-26T09:22:28;3.40;;;2.00;;
6378;SDS011;3222;48.858;10.128;2023-02-26T09:24:54;2.37;;;2.17;;
6378;SDS011;3222;48.858;10.128;2023-02-26T09:27:19;2.70;;;2.50;;
6378;SDS011;3222;48.858;10.128;2023-02-26T09:29:45;2.53;;;2.37;;
6378;SDS011;3222;48.858;10.128;2023-02-26T09:32:11;2.60;;;2.40;;
6378;SDS011;3222;48.858;10.128;2023-02-26T09:34:37;3.57;;;2.50;;
6378;SDS011;3222;48.858;10.128;2023-02-26T09:37:06;3.43;;;2.47;;
6378;SDS011;3222;48.858;10.128;2023-02-26T09:39:33;2.60;;;2.40;;
6378;SDS011;3222;48.858;10.128;2023-02-26T09:42:09;2.40;;;2.20;;
6378;SDS011;3222;48.858;10.128;2023-02-26T09:44:52;2.30;;;2.20;;
6378;SDS011;3222;48.858;10.128;2023-02-26T09:47:35;2.80;;;2.30;;
6378;SDS011;3222;48.858;10.128;2023-02-26T09:50:23;2.20;;;2.10;;
6378;SDS011;3222;48.858;10.128;2023-02-26T09:53:03;2.50;;;2.30;;
6378;SDS011;3222;48.858;10.128;2023-02-26T09:55:49;2.30;;;2.10;;
6378;SDS011;3222;48.858;10.128;2023-02-26T10:01:15;2.70;;;2.50;;
6378;SDS011;3222;48.858;10.128;2023-02-26T10:12:26;2.67;;;2.20;;
6378;SDS011;3222;48.858;10.128;2023-02-26T10:25:32;2.50;;;2.40;;
6378;SDS011;3222;48.858;10.128;2023-02-26T10:31:35;2.67;;;2.40;;
6378;SDS011;3222;48.858;10.128;2023-02-26T10:42:43;2.43;;;2.23;;
6378;SDS011;3222;48.858;10.128;2023-02-26T10:51:15;2.37;;;2.10;;
6378;SDS011;3222;48.858;10.128;2023-02-26T10:53:55;2.20;;;2.00;;
6378;SDS011;3222;48.858;10.128;2023-02-26T10:56:31;2.53;;;2.20;;
6378;SDS011;3222;48.858;10.128;2023-02-26T10:58:58;2.20;;;2.10;;
6378;SDS011;3222;48.858;10.128;2023-02-26T11:01:25;3.43;;;2.50;;
6378;SDS011;3222;48.858;10.128;2023-02-26T11:03:56;2.03;;;1.93;;
6378;SDS011;3222;48.858;10.128;2023-02-26T11:06:29;2.47;;;2.30;;
6378;SDS011;3222;48.858;10.128;2023-02-26T11:08:57;2.10;;;2.00;;
6378;SDS011;3222;48.858;10.128;2023-02-26T11:12:25;2.10;;;2.00;;
6378;SDS011;3222;48.858;10.128;2023-02-26T11:14:21;2.60;;;2.30;;
6378;SDS011;3222;48.858;10.128;2023-02-26T11:16:55;2.30;;;2.10;;
6378;SDS011;3222;48.858;10.128;2023-02-26T11:19:26;2.10;;;2.00;;
6378;SDS011;3222;48.858;10.128;2023-02-26T11:21:55;2.20;;;2.10;;
6378;SDS011;3222;48.858;10.128;2023-02-26T11:24:29;2.10;;;2.00;;
6378;SDS011;3222;48.858;10.128;2023-02-26T11:27:00;2.17;;;2.00;;
6378;SDS011;3222;48.858;10.128;2023-02-26T11:29:39;3.20;;;2.20;;
6378;SDS011;3222;48.858;10.128;2023-02-26T11:32:13;2.30;;;2.10;;
6378;SDS011;3222;48.858;10.128;2023-02-26T11:34:47;2.30;;;2.20;;
6378;SDS011;3222;48.858;10.128;2023-02-26T11:37:34;2.30;;;2.20;;
6378;SDS011;3222;48.858;10.128;2023-02-26T11:40:04;2.30;;;2.20;;
6378;SDS011;3222;48.858;10.128;2023-02-26T11:43:07;2.00;;;1.90;;
6378;SDS011;3222;48.858;10.128;2023-02-26T11:45:38;4.03;;;2.10;;
6378;SDS011;3222;48.858;10.128;2023-02-26T11:48:10;2.20;;;2.10;;
6378;SDS011;3222;48.858;10.128;2023-02-26T11:50:45;2.40;;;2.30;;
6378;SDS011;3222;48.858;10.128;2023-02-26T11:53:23;2.43;;;2.23;;
6378;SDS011;3222;48.858;10.128;2023-02-26T11:55:59;1.90;;;1.80;;
6378;SDS011;3222;48.858;10.128;2023-02-26T11:58:28;2.00;;;1.90;;
6378;SDS011;3222;48.858;10.128;2023-02-26T12:01:00;2.23;;;2.03;;
6378;SDS011;3222;48.858;10.128;2023-02-26T12:03:28;2.50;;;2.30;;
6378;SDS011;3222;48.858;10.128;2023-02-26T12:05:57;2.17;;;2.07;;
6378;SDS011;3222;48.858;10.128;2023-02-26T12:08:37;2.33;;;2.17;;
6378;SDS011;3222;48.858;10.128;2023-02-26T12:19:30;2.30;;;2.10;;
6378;SDS011;3222;48.858;10.128;2023-02-26T12:22:17;2.00;;;1.90;;
6378;SDS011;3222;48.858;10.128;2023-02-26T12:25:25;2.20;;;2.00;;
6378;SDS011;3222;48.858;10.128;2023-02-26T12:40:16;1.70;;;1.60;;
6378;SDS011;3222;48.858;10.128;2023-02-26T13:16:28;1.50;;;1.50;;
6378;SDS011;3222;48.858;10.128;2023-02-26T13:19:05;1.77;;;1.67;;
6378;SDS011;3222;48.858;10.128;2023-02-26T13:21:50;1.60;;;1.50;;
6378;SDS011;3222;48.858;10.128;2023-02-26T13:24:23;1.50;;;1.47;;
6378;SDS011;3222;48.858;10.128;2023-02-26T13:26:55;1.50;;;1.40;;
6378;SDS011;3222;48.858;10.128;2023-02-26T13:29:29;1.40;;;1.33;;
6378;SDS011;3222;48.858;10.128;2023-02-26T13:32:00;4.20;;;1.43;;
6378;SDS011;3222;48.858;10.128;2023-02-26T13:34:42;1.87;;;1.77;;
6378;SDS011;3222;48.858;10.128;2023-02-26T13:39:52;4.50;;;1.90;;
6378;SDS011;3222;48.858;10.128;2023-02-26T13:53:50;1.80;;;1.70;;
6378;SDS011;3222;48.858;10.128;2023-02-26T13:59:04;1.90;;;1.80;;
6378;SDS011;3222;48.858;10.128;2023-02-26T14:04:50;6.73;;;1.47;;
6378;SDS011;3222;48.858;10.128;2023-02-26T14:07:43;1.67;;;1.50;;
6378;SDS011;3222;48.858;10.128;2023-02-26T14:10:22;1.80;;;1.70;;
6378;SDS011;3222;48.858;10.128;2023-02-26T14:15:40;1.53;;;1.43;;
6378;SDS011;3222;48.858;10.128;2023-02-26T14:24:36;1.90;;;1.80;;
6378;SDS011;3222;48.858;10.128;2023-02-26T14:29:39;2.63;;;1.80;;
6378;SDS011;3222;48.858;10.128;2023-02-26T14:32:52;1.80;;;1.70;;
6378;SDS011;3222;48.858;10.128;2023-02-26T14:35:25;1.40;;;1.40;;
6378;SDS011;3222;48.858;10.128;2023-02-26T14:38:14;2.40;;;1.70;;
6378;SDS011;3222;48.858;10.128;2023-02-26T14:40:49;1.87;;;1.77;;
6378;SDS011;3222;48.858;10.128;2023-02-26T14:43:42;2.23;;;2.07;;
6378;SDS011;3222;48.858;10.128;2023-02-26T14:46:14;2.47;;;2.23;;
6378;SDS011;3222;48.858;10.128;2023-02-26T14:48:39;2.20;;;1.87;;
6378;SDS011;3222;48.858;10.128;2023-02-26T15:02:15;6.00;;;3.40;;
6378;SDS011;3222;48.858;10.128;2023-02-26T15:23:50;1.93;;;1.83;;
6378;SDS011;3222;48.858;10.128;2023-02-26T15:26:22;2.57;;;2.27;;
6378;SDS011;3222;48.858;10.128;2023-02-26T15:28:57;5.03;;;3.77;;
6378;SDS011;3222;48.858;10.128;2023-02-26T15:31:36;3.90;;;3.57;;
6378;SDS011;3222;48.858;10.128;2023-02-26T15:34:11;4.30;;;3.60;;
6378;SDS011;3222;48.858;10.128;2023-02-26T15:36:43;5.73;;;3.93;;
6378;SDS011;3222;48.858;10.128;2023-02-26T15:39:11;3.53;;;2.90;;
6378;SDS011;3222;48.858;10.128;2023-02-26T15:41:40;2.50;;;2.30;;
6378;SDS011;3222;48.858;10.128;2023-02-26T15:44:06;3.07;;;2.40;;
6378;SDS011;3222;48.858;10.128;2023-02-26T15:46:38;2.30;;;2.07;;
6378;SDS011;3222;48.858;10.128;2023-02-26T15:49:07;1.87;;;1.77;;
6378;SDS011;3222;48.858;10.128;2023-02-26T15:51:57;1.53;;;1.43;;
6378;SDS011;3222;48.858;10.128;2023-02-26T15:54:27;2.10;;;2.00;;
6378;SDS011;3222;48.858;10.128;2023-02-26T15:57:06;2.70;;;1.90;;
6378;SDS011;3222;48.858;10.128;2023-02-26T15:59:34;1.70;;;1.60;;
6378;SDS011;3222;48.858;10.128;2023-02-26T16:02:09;1.67;;;1.57;;
6378;SDS011;3222;48.858;10.128;2023-02-26T16:04:40;1.63;;;1.53;;
6378;SDS011;3222;48.858;10.128;2023-02-26T16:07:08;1.40;;;1.40;;
6378;SDS011;3222;48.858;10.128;2023-02-26T16:09:37;1.50;;;1.40;;
6378;SDS011;3222;48.858;10.128;2023-02-26T16:12:12;1.60;;;1.50;;
6378;SDS011;3222;48.858;10.128;2023-02-26T16:14:44;2.10;;;1.50;;
6378;SDS011;3222;48.858;10.128;2023-02-26T16:17:26;1.50;;;1.40;;
6378;SDS011;3222;48.858;10.128;2023-02-26T16:19:55;1.40;;;1.30;;
6378;SDS011;3222;48.858;10.128;2023-02-26T16:25:03;1.73;;;1.50;;
6378;SDS011;3222;48.858;10.128;2023-02-26T16:27:41;1.50;;;1.40;;
6378;SDS011;3222;48.858;10.128;2023-02-26T16:30:18;1.40;;;1.30;;
6378;SDS011;3222;48.858;10.128;2023-02-26T16:32:48;1.73;;;1.60;;
6378;SDS011;3222;48.858;10.128;2023-02-26T16:35:18;1.63;;;1.40;;
6378;SDS011;3222;48.858;10.128;2023-02-26T16:37:46;2.60;;;1.93;;
6378;SDS011;3222;48.858;10.128;2023-02-26T16:40:22;1.93;;;1.70;;
6378;SDS011;3222;48.858;10.128;2023-02-26T16:43:03;2.87;;;1.60;;
6378;SDS011;3222;48.858;10.128;2023-02-26T16:45:53;2.23;;;1.67;;
6378;SDS011;3222;48.858;10.128;2023-02-26T16:48:32;4.60;;;3.87;;
6378;SDS011;3222;48.858;10.128;2023-02-26T16:51:05;4.83;;;3.60;;
6378;SDS011;3222;48.858;10.128;2023-02-26T16:53:43;2.67;;;2.40;;
6378;SDS011;3222;48.858;10.128;2023-02-26T16:56:14;2.37;;;2.17;;
6378;SDS011;3222;48.858;10.128;2023-02-26T16:58:43;2.00;;;1.90;;
6378;SDS011;3222;48.858;10.128;2023-02-26T17:01:13;1.80;;;1.70;;
6378;SDS011;3222;48.858;10.128;2023-02-26T17:03:42;1.97;;;1.77;;
6378;SDS011;3222;48.858;10.128;2023-02-26T17:06:14;2.40;;;2.20;;
6378;SDS011;3222;48.858;10.128;2023-02-26T17:08:58;1.90;;;1.70;;
6378;SDS011;3222;48.858;10.128;2023-02-26T17:11:36;2.13;;;1.70;;
6378;SDS011;3222;48.858;10.128;2023-02-26T17:14:23;2.97;;;2.67;;
6378;SDS011;3222;48.858;10.128;2023-02-26T17:16:51;4.27;;;2.73;;
6378;SDS011;3222;48.858;10.128;2023-02-26T17:19:17;2.43;;;2.23;;
6378;SDS011;3222;48.858;10.128;2023-02-26T17:21:44;1.83;;;1.70;;
6378;SDS011;3222;48.858;10.128;2023-02-26T17:24:19;1.80;;;1.70;;
6378;SDS011;3222;48.858;10.128;2023-02-26T17:26:50;1.90;;;1.80;;
6378;SDS011;3222;48.858;10.128;2023-02-26T17:29:20;1.93;;;1.73;;
6378;SDS011;3222;48.858;10.128;2023-02-26T17:31:51;2.20;;;1.77;;
6378;SDS011;3222;48.858;10.128;2023-02-26T17:34:18;1.80;;;1.70;;
6378;SDS011;3222;48.858;10.128;2023-02-26T17:36:45;1.57;;;1.47;;
6378;SDS011;3222;48.858;10.128;2023-02-26T17:39:11;2.10;;;2.00;;
6378;SDS011;3222;48.858;10.128;2023-02-26T17:41:37;2.00;;;1.90;;
6378;SDS011;3222;48.858;10.128;2023-02-26T17:44:06;2.10;;;1.57;;
6378;SDS011;3222;48.858;10.128;2023-02-26T17:46:32;1.60;;;1.60;;
6378;SDS011;3222;48.858;10.128;2023-02-26T17:48:57;1.70;;;1.60;;
6378;SDS011;3222;48.858;10.128;2023-02-26T17:51:23;1.80;;;1.67;;
6378;SDS011;3222;48.858;10.128;2023-02-26T17:53:51;1.70;;;1.60;;
6378;SDS011;3222;48.858;10.128;2023-02-26T17:56:25;2.63;;;1.73;;
6378;SDS011;3222;48.858;10.128;2023-02-26T17:58:53;1.83;;;1.73;;
6378;SDS011;3222;48.858;10.128;2023-02-26T18:01:20;1.70;;;1.60;;
6378;SDS011;3222;48.858;10.128;2023-02-26T18:03:47;1.57;;;1.47;;
6378;SDS011;3222;48.858;10.128;2023-02-26T18:06:14;1.53;;;1.43;;
6378;SDS011;3222;48.858;10.128;2023-02-26T18:08:40;2.00;;;1.53;;
6378;SDS011;3222;48.858;10.128;2023-02-26T18:11:06;1.60;;;1.50;;
6378;SDS011;3222;48.858;10.128;2023-02-26T18:13:36;1.50;;;1.40;;
6378;SDS011;3222;48.858;10.128;2023-02-26T18:16:02;1.47;;;1.40;;
6378;SDS011;3222;48.858;10.128;2023-02-26T18:18:29;1.50;;;1.50;;
6378;SDS011;3222;48.858;10.128;2023-02-26T18:20:56;1.80;;;1.70;;
6378;SDS011;3222;48.858;10.128;2023-02-26T18:23:22;1.60;;;1.50;;
6378;SDS011;3222;48.858;10.128;2023-02-26T18:25:50;2.23;;;1.40;;
6378;SDS011;3222;48.858;10.128;2023-02-26T18:28:18;1.97;;;1.77;;
6378;SDS011;3222;48.858;10.128;2023-02-26T18:30:46;1.50;;;1.40;;
6378;SDS011;3222;48.858;10.128;2023-02-26T18:33:12;1.67;;;1.60;;
6378;SDS011;3222;48.858;10.128;2023-02-26T18:35:41;1.60;;;1.50;;
6378;SDS011;3222;48.858;10.128;2023-02-26T18:38:11;2.03;;;1.93;;
6378;SDS011;3222;48.858;10.128;2023-02-26T18:40:38;1.70;;;1.60;;
6378;SDS011;3222;48.858;10.128;2023-02-26T18:43:04;3.07;;;1.63;;
6378;SDS011;3222;48.858;10.128;2023-02-26T18:45:30;3.70;;;2.83;;
6378;SDS011;3222;48.858;10.128;2023-02-26T18:47:56;5.80;;;3.83;;